Time,TemperatureF,DewpointF,PressureIn,WindDirection,WindDirectionDegrees,WindSpeedMPH,WindSpeedGustMPH,Humidity,HourlyPrecipIn,Conditions,Clouds,dailyrainin,SolarRadiationWatts/m^2,SoftwareType,DateUTC
2013-06-27 00:12:00,61.9,59.0,30.04,SSE,149,0.0,4.0,91,0.00,,,0.00,0,weatherlink.com 1.10,2013-06-27 07:12:00,
2013-06-27 00:27:00,61.6,59.0,30.04,SSE,157,3.0,4.0,91,0.00,,,0.00,0,weatherlink.com 1.10,2013-06-27 07:27:00,
2013-06-27 00:42:00,61.2,59.0,30.04,SE,144,0.0,4.0,92,0.00,,,0.00,0,weatherlink.com 1.10,2013-06-27 07:42:00,
2013-06-27 00:57:00,60.9,59.0,30.04,South,169,0.0,4.0,92,0.00,,,0.00,0,weatherlink.com 1.10,2013-06-27 07:57:00,
2013-06-27 01:12:00,60.6,58.0,30.04,SSE,150,1.0,2.0,92,0.00,,,0.00,0,weatherlink.com 1.10,2013-06-27 08:12:00,
2013-06-27 01:27:00,60.3,58.0,30.04,SSE,158,1.0,4.0,92,0.00,,,0.00,0,weatherlink.com 1.10,2013-06-27 08:27:00,
2013-06-27 01:42:00,59.8,58.0,30.04,SSE,156,1.0,3.0,93,0.00,,,0.00,0,weatherlink.com 1.10,2013-06-27 08:42:00,
2013-06-27 01:57:00,59.4,57.0,30.05,SSE,147,3.0,4.0,93,0.00,,,0.00,0,weatherlink.com 1.10,2013-06-27 08:57:00,
2013-06-27 02:13:00,58.9,57.0,30.05,SSE,157,0.0,2.0,93,0.00,,,0.00,0,weatherlink.com 1.10,2013-06-27 09:13:00,
2013-06-27 02:28:00,59.0,57.0,30.05,SE,146,1.0,4.0,94,0.00,,,0.00,0,weatherlink.com 1.10,2013-06-27 09:28:00,
2013-06-27 02:43:00,58.9,58.0,30.05,SSE,153,0.0,4.0,95,0.00,,,0.00,0,weatherlink.com 1.10,2013-06-27 09:43:00,
2013-06-27 02:58:00,58.7,57.0,30.04,SSE,147,1.0,4.0,95,0.00,,,0.00,0,weatherlink.com 1.10,2013-06-27 09:58:00,
2013-06-27 03:13:00,58.7,57.0,30.05,SSE,155,2.0,2.0,95,0.00,,,0.00,0,weatherlink.com 1.10,2013-06-27 10:13:00,
2013-06-27 03:28:00,58.5,57.0,30.04,South,169,1.0,3.0,95,0.00,,,0.00,0,weatherlink.com 1.10,2013-06-27 10:28:00,
2013-06-27 03:43:00,58.6,58.0,30.04,South,169,1.0,2.0,96,0.00,,,0.00,0,weatherlink.com 1.10,2013-06-27 10:43:00,
2013-06-27 03:58:00,58.8,58.0,30.04,SSE,155,1.0,2.0,96,0.00,,,0.00,0,weatherlink.com 1.10,2013-06-27 10:58:00,
2013-06-27 04:13:00,59.2,58.0,30.04,SE,138,1.0,5.0,96,0.00,,,0.00,0,weatherlink.com 1.10,2013-06-27 11:13:00,
2013-06-27 04:28:00,59.7,59.0,30.04,SE,142,1.0,3.0,96,0.00,,,0.00,0,weatherlink.com 1.10,2013-06-27 11:28:00,
2013-06-27 04:43:00,59.3,58.0,30.04,SSE,153,2.0,3.0,96,0.00,,,0.00,0,weatherlink.com 1.10,2013-06-27 11:43:00,
2013-06-27 04:58:00,59.5,58.0,30.04,SSE,152,2.0,4.0,96,0.00,,,0.00,0,weatherlink.com 1.10,2013-06-27 11:58:00,
2013-06-27 05:13:00,59.5,58.0,30.04,SSE,150,2.0,4.0,96,0.00,,,0.00,0,weatherlink.com 1.10,2013-06-27 12:13:00,
2013-06-27 05:28:00,59.8,59.0,30.04,SE,145,2.0,4.0,96,0.00,,,0.00,0,weatherlink.com 1.10,2013-06-27 12:28:00,
2013-06-27 05:43:00,59.8,59.0,30.04,SE,139,1.0,4.0,96,0.00,,,0.00,0,weatherlink.com 1.10,2013-06-27 12:43:00,
2013-06-27 05:58:00,59.7,59.0,30.05,SE,141,0.0,3.0,96,0.00,,,0.00,5,weatherlink.com 1.10,2013-06-27 12:58:00,
2013-06-27 06:13:00,59.4,58.0,30.05,SE,141,1.0,2.0,96,0.00,,,0.00,16,weatherlink.com 1.10,2013-06-27 13:13:00,
2013-06-27 06:28:00,59.4,58.0,30.05,SE,141,0.0,2.0,96,0.00,,,0.00,26,weatherlink.com 1.10,2013-06-27 13:28:00,
2013-06-27 06:43:00,59.6,59.0,30.05,SE,141,1.0,2.0,96,0.00,,,0.00,46,weatherlink.com 1.10,2013-06-27 13:43:00,
2013-06-27 06:58:00,59.4,58.0,30.05,SE,143,2.0,3.0,96,0.00,,,0.00,63,weatherlink.com 1.10,2013-06-27 13:58:00,
2013-06-27 07:13:00,59.7,59.0,30.05,SE,144,1.0,3.0,96,0.00,,,0.00,105,weatherlink.com 1.10,2013-06-27 14:13:00,
2013-06-27 07:28:00,59.8,59.0,30.06,SE,144,1.0,4.0,96,0.00,,,0.00,84,weatherlink.com 1.10,2013-06-27 14:28:00,
2013-06-27 07:43:00,60.1,59.0,30.06,SE,135,3.0,4.0,97,0.00,,,0.00,54,weatherlink.com 1.10,2013-06-27 14:43:00,
2013-06-27 07:58:00,60.5,60.0,30.07,SE,143,0.0,4.0,97,0.00,,,0.00,30,weatherlink.com 1.10,2013-06-27 14:58:00,
2013-06-27 08:13:00,61.5,61.0,30.07,SSE,150,0.0,2.0,97,0.00,,,0.00,35,weatherlink.com 1.10,2013-06-27 15:13:00,
2013-06-27 08:28:00,62.4,61.0,30.07,SSE,148,1.0,3.0,96,0.00,,,0.00,230,weatherlink.com 1.10,2013-06-27 15:28:00,
2013-06-27 08:43:00,64.0,62.0,30.08,SSE,161,0.0,3.0,94,0.00,,,0.00,482,weatherlink.com 1.10,2013-06-27 15:43:00,
2013-06-27 08:58:00,66.1,63.0,30.08,SSE,153,0.0,3.0,88,0.00,,,0.00,533,weatherlink.com 1.10,2013-06-27 15:58:00,
2013-06-27 09:13:00,68.4,63.0,30.07,South,178,1.0,2.0,84,0.00,,,0.00,577,weatherlink.com 1.10,2013-06-27 16:13:00,
2013-06-27 09:28:00,69.9,64.0,30.07,SSW,200,0.0,2.0,81,0.00,,,0.00,622,weatherlink.com 1.10,2013-06-27 16:28:00,
2013-06-27 09:43:00,71.5,64.0,30.07,SSW,202,1.0,3.0,76,0.00,,,0.00,668,weatherlink.com 1.10,2013-06-27 16:43:00,
2013-06-27 09:58:00,71.5,64.0,30.07,South,174,1.0,4.0,76,0.00,,,0.00,708,weatherlink.com 1.10,2013-06-27 16:58:00,
2013-06-27 10:14:00,72.2,64.0,30.08,SE,146,2.0,4.0,74,0.00,,,0.00,749,weatherlink.com 1.10,2013-06-27 17:14:00,
2013-06-27 10:29:00,72.6,64.0,30.08,South,172,2.0,5.0,75,0.00,,,0.00,788,weatherlink.com 1.10,2013-06-27 17:29:00,
2013-06-27 10:44:00,73.3,64.0,30.08,South,174,2.0,3.0,72,0.00,,,0.00,823,weatherlink.com 1.10,2013-06-27 17:44:00,
2013-06-27 10:59:00,72.7,63.0,30.07,SW,218,2.0,4.0,71,0.00,,,0.00,856,weatherlink.com 1.10,2013-06-27 17:59:00,
2013-06-27 11:15:00,72.3,62.0,30.08,SE,141,4.0,4.0,71,0.00,,,0.00,886,weatherlink.com 1.10,2013-06-27 18:15:00,
2013-06-27 11:29:00,72.2,63.0,30.08,SE,142,4.0,5.0,72,0.00,,,0.00,912,weatherlink.com 1.10,2013-06-27 18:29:00,
2013-06-27 11:44:00,72.3,62.0,30.08,SSE,148,2.0,5.0,70,0.00,,,0.00,935,weatherlink.com 1.10,2013-06-27 18:44:00,
2013-06-27 11:59:00,72.5,62.0,30.08,SE,139,3.0,6.0,70,0.00,,,0.00,956,weatherlink.com 1.10,2013-06-27 18:59:00,
2013-06-27 12:14:00,71.7,61.0,30.08,SSE,157,1.0,5.0,70,0.00,,,0.00,974,weatherlink.com 1.10,2013-06-27 19:14:00,
2013-06-27 12:29:00,71.2,61.0,30.08,SE,132,2.0,7.0,71,0.00,,,0.00,983,weatherlink.com 1.10,2013-06-27 19:29:00,
2013-06-27 12:44:00,70.5,61.0,30.07,SSE,148,3.0,7.0,73,0.00,,,0.00,993,weatherlink.com 1.10,2013-06-27 19:44:00,
2013-06-27 12:59:00,72.5,63.0,30.07,South,175,2.0,5.0,71,0.00,,,0.00,1000,weatherlink.com 1.10,2013-06-27 19:59:00,
2013-06-27 13:14:00,73.9,62.0,30.07,SSW,196,4.0,6.0,67,0.00,,,0.00,998,weatherlink.com 1.10,2013-06-27 20:14:00,
2013-06-27 13:29:00,73.6,62.0,30.07,SSE,153,3.0,7.0,66,0.00,,,0.00,1000,weatherlink.com 1.10,2013-06-27 20:29:00,
2013-06-27 13:44:00,74.1,62.0,30.07,South,169,2.0,7.0,66,0.00,,,0.00,997,weatherlink.com 1.10,2013-06-27 20:44:00,
2013-06-27 13:59:00,74.4,62.0,30.06,SSE,154,4.0,7.0,65,0.00,,,0.00,986,weatherlink.com 1.10,2013-06-27 20:59:00,
2013-06-27 14:14:00,74.1,62.0,30.06,SSE,163,4.0,6.0,67,0.00,,,0.00,976,weatherlink.com 1.10,2013-06-27 21:14:00,
2013-06-27 14:29:00,74.4,62.0,30.05,SW,215,2.0,5.0,66,0.00,,,0.00,963,weatherlink.com 1.10,2013-06-27 21:29:00,
2013-06-27 14:59:00,74.3,62.0,30.05,SW,224,3.0,7.0,65,0.00,,,0.00,925,weatherlink.com 1.10,2013-06-27 21:59:00,
2013-06-27 15:14:00,75.1,63.0,30.05,SE,139,5.0,6.0,66,0.00,,,0.00,902,weatherlink.com 1.10,2013-06-27 22:14:00,
2013-06-27 15:29:00,75.4,62.0,30.05,SSE,149,3.0,8.0,63,0.00,,,0.00,868,weatherlink.com 1.10,2013-06-27 22:29:00,
2013-06-27 15:59:00,74.3,61.0,30.04,SSE,167,2.0,7.0,64,0.00,,,0.00,803,weatherlink.com 1.10,2013-06-27 22:59:00,
2013-06-27 16:14:00,74.4,61.0,30.04,SE,131,4.0,7.0,64,0.00,,,0.00,768,weatherlink.com 1.10,2013-06-27 23:14:00,
2013-06-27 16:29:00,74.9,62.0,30.03,SSE,158,3.0,7.0,64,0.00,,,0.00,729,weatherlink.com 1.10,2013-06-27 23:29:00,
2013-06-27 16:44:00,75.7,62.0,30.03,SE,141,2.0,6.0,63,0.00,,,0.00,689,weatherlink.com 1.10,2013-06-27 23:44:00,
2013-06-27 17:00:00,76.4,62.0,30.03,SSE,155,2.0,7.0,62,0.00,,,0.00,647,weatherlink.com 1.10,2013-06-28 00:00:00,
2013-06-27 17:45:00,75.9,61.0,30.02,SW,215,2.0,6.0,61,0.00,,,0.00,506,weatherlink.com 1.10,2013-06-28 00:45:00,
2013-06-27 18:00:00,75.0,61.0,30.02,South,191,3.0,8.0,63,0.00,,,0.00,69,weatherlink.com 1.10,2013-06-28 01:00:00,
2013-06-27 18:15:00,74.3,61.0,30.02,South,172,4.0,6.0,64,0.00,,,0.00,350,weatherlink.com 1.10,2013-06-28 01:15:00,
2013-06-27 18:30:00,72.9,60.0,30.02,South,174,4.0,8.0,65,0.00,,,0.00,148,weatherlink.com 1.10,2013-06-28 01:30:00,
2013-06-27 18:46:00,71.5,60.0,30.01,SE,145,3.0,8.0,67,0.00,,,0.00,33,weatherlink.com 1.10,2013-06-28 01:46:00,
2013-06-27 19:00:00,71.1,60.0,30.01,SSE,167,1.0,6.0,68,0.00,,,0.00,42,weatherlink.com 1.10,2013-06-28 02:00:00,
2013-06-27 19:15:00,71.0,60.0,30.01,SSE,148,7.0,8.0,68,0.00,,,0.00,26,weatherlink.com 1.10,2013-06-28 02:15:00,
2013-06-27 19:30:00,71.1,60.0,30.01,SSE,165,3.0,8.0,68,0.00,,,0.00,114,weatherlink.com 1.10,2013-06-28 02:30:00,
2013-06-27 19:45:00,71.2,60.0,30.01,SSE,159,1.0,6.0,67,0.00,,,0.00,19,weatherlink.com 1.10,2013-06-28 02:45:00,
2013-06-27 20:00:00,70.3,60.0,30.01,South,173,2.0,6.0,69,0.00,,,0.00,14,weatherlink.com 1.10,2013-06-28 03:00:00,
2013-06-27 20:15:00,70.1,59.0,30.01,SSE,160,1.0,4.0,69,0.00,,,0.00,11,weatherlink.com 1.10,2013-06-28 03:15:00,
2013-06-27 20:30:00,69.4,60.0,30.01,SSE,148,2.0,3.0,71,0.00,,,0.00,5,weatherlink.com 1.10,2013-06-28 03:30:00,
2013-06-27 20:45:00,68.0,59.0,30.02,SE,138,3.0,5.0,74,0.00,,,0.00,0,weatherlink.com 1.10,2013-06-28 03:45:00,
2013-06-27 21:00:00,66.4,59.0,30.02,SE,146,2.0,5.0,78,0.00,,,0.00,0,weatherlink.com 1.10,2013-06-28 04:00:00,
2013-06-27 21:15:00,65.0,59.0,30.02,SSE,150,1.0,5.0,81,0.00,,,0.00,0,weatherlink.com 1.10,2013-06-28 04:15:00,
2013-06-27 21:30:00,64.0,58.0,30.02,SSE,161,1.0,4.0,82,0.00,,,0.00,0,weatherlink.com 1.10,2013-06-28 04:30:00,
2013-06-27 21:45:00,63.3,58.0,30.03,SSE,148,1.0,5.0,83,0.00,,,0.00,0,weatherlink.com 1.10,2013-06-28 04:45:00,
2013-06-27 22:00:00,62.8,58.0,30.03,SSE,148,3.0,4.0,85,0.00,,,0.00,0,weatherlink.com 1.10,2013-06-28 05:00:00,
2013-06-27 22:15:00,62.7,58.0,30.04,SE,135,5.0,5.0,85,0.00,,,0.00,0,weatherlink.com 1.10,2013-06-28 05:15:00,
2013-06-27 22:30:00,62.2,58.0,30.04,SSE,162,3.0,5.0,86,0.00,,,0.00,0,weatherlink.com 1.10,2013-06-28 05:30:00,
2013-06-27 22:45:00,61.7,58.0,30.04,SE,144,0.0,4.0,86,0.00,,,0.00,0,weatherlink.com 1.10,2013-06-28 05:45:00,
2013-06-27 23:00:00,61.4,58.0,30.03,SSE,150,2.0,5.0,87,0.00,,,0.00,0,weatherlink.com 1.10,2013-06-28 06:00:00,
2013-06-27 23:15:00,60.8,58.0,30.03,SSE,155,1.0,4.0,89,0.00,,,0.00,0,weatherlink.com 1.10,2013-06-28 06:15:00,
2013-06-27 23:30:00,60.8,58.0,30.03,SSE,159,1.0,2.0,89,0.00,,,0.00,0,weatherlink.com 1.10,2013-06-28 06:30:00,
2013-06-27 23:45:00,61.2,58.0,30.03,SSE,152,1.0,4.0,88,0.00,,,0.00,0,weatherlink.com 1.10,2013-06-28 06:45:00,